Details From CYYC - Calgary Intl
To CYXC - Canadian Rockies Intl
Flight Number -
Tags Standard
Created
Modified
Stats Distance 122 nm / 225 km
Max Altitude 28,000 ft / 8,534 m
Waypoints 4
Social Downloads 1
Likes 0
Share VATSIM

Download

Looking for another format? Having issues loading an existing format? Contact us
Advertisement - Login to hide

Notes

None

Route

CYYC YYC CONER CYXC

ID Type Via Altitude Latitude Longitude Leg Dist Tot Dist Heading (true) Name
O CYYC APT - 0 ft / 0 m 51.11394˚ -114.02017˚ - 0 nm - CALGARY INTL
YYC VOR - 28,000 ft / 8,534 m 51.11506˚ -113.88209˚ 5 nm 5 nm 89° / 89° CALGARY VOR-DME
CONER FIX - 14,000 ft / 4,267 m 50.16555˚ -115.24936˚ 77 nm 82 nm 223° / 222° -
O CYXC APT - 0 ft / 0 m 49.61222˚ -115.78194˚ 39 nm 121 nm 212° / 212° CANADIAN ROCKIES INTL

Altitude Profile

Advertisement - Login to hide

CYYC

Details ICAO CYYC (YYC)
Name CALGARY INTL
Region Canada
Timezone America/Edmonton (UTC-7.0)
Stats Elevation 3,557 ft / 1,084 m (AMSL)
Location 51.113197° -114.020044°
Runways 3
Magnetic Variation 14.091° E

METAR

CYYC 160700Z 18002KT 10SM VCSH OVC090 M00/M04 A2985 RMK AC8 SH N + SE SLP147

Decode

TAF

TAF CYYC 160538Z 1606/1706 VRB03KT P6SM BKN080 PROB30 1606/1613 2SM -SHSN OVC060 FM161300 26006KT P6SM SKC BECMG 1618/1620 26010KT FM170200 24006KT P6SM SCT080 RMK NXT FCST BY 160900Z

Decode

Departure Runways

ID Width Length Bearing (true) Bearing (mag) Surface Threshold Offset Overrun Length
07 144 ft / 44 m 6,561 ft / 2,000 m 90.76° 76.67° Asphalt 0 ft / 0 m 0 ft / 0 m
10 210 ft / 64 m 8,433 ft / 2,570 m 119.00° 104.91° Asphalt 0 ft / 0 m 0 ft / 0 m
16 200 ft / 61 m 12,703 ft / 3,872 m 179.00° 164.91° Asphalt 0 ft / 0 m 0 ft / 0 m
25 144 ft / 44 m 6,561 ft / 2,000 m 270.78° 256.69° Asphalt 0 ft / 0 m 0 ft / 0 m
28 210 ft / 64 m 8,433 ft / 2,570 m 299.02° 284.93° Asphalt 0 ft / 0 m 121 ft / 37 m
34 200 ft / 61 m 12,703 ft / 3,872 m 359.00° 344.91° Asphalt 0 ft / 0 m 0 ft / 0 m

CYXC

Details ICAO CYXC (YXC)
Name CANADIAN ROCKIES INTL
Region Canada
Timezone America/Edmonton (UTC-7.0)
Stats Elevation 3,084 ft / 940 m (AMSL)
Location 49.612121° -115.782055°
Runways 1
Magnetic Variation 14.454° E

METAR

CYXC 160700Z 32004KT 15SM FEW005 FEW015 OVC027 M04/M06 A3001 RMK SF1SC2SC6 SF TR SLP206

Decode

TAF

TAF CYXC 160638Z 1607/1619 VRB03KT P6SM FEW005 FEW015 OVC025 TEMPO 1607/1619 3SM -SN SCT005 OVC015 RMK NXT FCST BY 161300Z

Decode

Destination Runways

ID Width Length Bearing (true) Bearing (mag) Surface Threshold Offset Overrun Length
16 150 ft / 46 m 8,000 ft / 2,438 m 179.16° 164.71° Asphalt 780 ft / 238 m 0 ft / 0 m
34 150 ft / 46 m 8,000 ft / 2,438 m 359.16° 344.71° Asphalt 0 ft / 0 m 0 ft / 0 m

Approach Navaids

Runway Type Ident Frequency Range Bearing (true) Bearing (mag) Slope Elevation
16 Localiser IXC 110.30 MHz 18 nm / 33 km 179.82° 165.37° - 3,058 ft / 932 m (AMSL)
16 Glidescope IXC 110.30 MHz 10 nm / 19 km 179.16° 164.70° 3.00° 3,015 ft / 919 m (AMSL)

Popular Alternatives